Terminal Aerodrome Forecast
Issued by NWS

Home | Current Version | Previous Version | Text Only | Print | Product List | Glossary On
Versions: 1 2 3 4 5 6 7 8 9 10 11 12 13 14 15 16 17 18
990
FTUS43 KPAH 131727
TAFCGI
TAF
KCGI 131727Z 1318/1418 03008KT P6SM OVC090
     FM140000 07007KT P6SM OVC070 PROB30 1409/1412 6SM -SN BR OVC040
     FM141200 13009KT P6SM SCT025 OVC050
     FM141400 13010KT 4SM -SHSN OVC025=

USA.gov is the U.S. government's official web portal to all federal, state and local government web resources and services.